Time;durP1;ratioP1;P1;durP2;ratioP2;P2;SDS_P1;SDS_P2;PMS_P1;PMS_P2;Temp;Humidity;BMP_temperature;BMP_pressure;BME280_temperature;BME280_humidity;BME280_pressure;Samples;Min_cycle;Max_cycle;Signal;HPM_P1;HPM_P2
2024/02/05 00:01:42;;;;;;;20.00;4.90;;;12.10;99.90;;;;;;5038809;28;20009;-38
2024/02/05 00:04:11;;;;;;;12.18;3.58;;;12.00;99.90;;;;;;5037382;28;20110;-34
2024/02/05 00:06:36;;;;;;;10.00;3.42;;;12.00;99.90;;;;;;5037880;28;20152;-36
2024/02/05 00:09:05;;;;;;;10.15;3.55;;;12.00;99.90;;;;;;5038542;28;20033;-36
2024/02/05 00:11:30;;;;;;;11.90;4.50;;;12.00;99.90;;;;;;5036402;28;20021;-36
2024/02/05 00:13:56;;;;;;;11.88;4.38;;;12.00;99.90;;;;;;5040714;28;20052;-36
2024/02/05 00:16:21;;;;;;;13.55;3.88;;;12.00;99.90;;;;;;5041224;28;20033;-37
2024/02/05 00:18:47;;;;;;;13.88;4.03;;;12.00;99.90;;;;;;5041341;28;20021;-35
2024/02/05 00:21:12;;;;;;;12.70;4.20;;;12.00;99.90;;;;;;5040708;28;20071;-37
2024/02/05 00:23:38;;;;;;;13.93;3.67;;;11.90;99.90;;;;;;5040654;28;20127;-36
2024/02/05 00:26:03;;;;;;;14.15;5.03;;;11.90;99.90;;;;;;5040864;28;20025;-35
2024/02/05 00:28:30;;;;;;;16.25;4.40;;;11.90;99.90;;;;;;5041321;28;20031;-32
2024/02/05 00:30:55;;;;;;;17.48;4.45;;;11.90;99.90;;;;;;5040958;28;20426;-34
2024/02/05 00:33:21;;;;;;;13.27;4.15;;;11.90;99.90;;;;;;5041605;28;20547;-34
2024/02/05 00:35:46;;;;;;;13.63;4.05;;;11.80;99.90;;;;;;5042078;28;20017;-33
2024/02/05 00:38:12;;;;;;;19.33;5.50;;;11.90;99.90;;;;;;5040726;28;20194;-35
2024/02/05 00:40:41;;;;;;;20.35;5.75;;;11.80;99.90;;;;;;5041573;28;20135;-35
2024/02/05 00:43:07;;;;;;;18.38;4.93;;;11.80;99.90;;;;;;5040361;28;20479;-37
2024/02/05 00:45:32;;;;;;;13.23;4.40;;;11.80;99.90;;;;;;5039012;28;20028;-37
2024/02/05 00:47:58;;;;;;;21.27;4.78;;;11.80;99.90;;;;;;5041463;28;20033;-37
2024/02/05 00:50:23;;;;;;;9.93;3.53;;;11.70;99.90;;;;;;5041349;28;20902;-37
2024/02/05 00:52:49;;;;;;;17.33;5.20;;;11.80;99.90;;;;;;5040674;28;20850;-37
2024/02/05 00:55:15;;;;;;;15.82;4.28;;;11.70;99.90;;;;;;5039123;28;20055;-37
2024/02/05 00:57:40;;;;;;;15.70;4.30;;;11.70;99.90;;;;;;5040787;28;20036;-31
2024/02/05 01:00:10;;;;;;;16.60;4.28;;;11.80;99.90;;;;;;5040051;28;20101;-33
2024/02/05 01:02:36;;;;;;;18.52;5.05;;;11.80;99.90;;;;;;5038383;28;20037;-36
2024/02/05 01:05:06;;;;;;;23.30;4.95;;;11.70;99.90;;;;;;5039929;28;20476;-36
2024/02/05 01:07:32;;;;;;;17.17;5.15;;;11.70;99.90;;;;;;5040726;28;20115;-37
2024/02/05 01:09:57;;;;;;;18.23;5.05;;;11.70;99.90;;;;;;5040464;28;20983;-34
2024/02/05 01:12:23;;;;;;;12.40;4.05;;;11.70;99.90;;;;;;5040484;28;20033;-36
2024/02/05 01:14:48;;;;;;;15.27;4.35;;;11.70;99.90;;;;;;5040682;28;20067;-34
2024/02/05 01:17:16;;;;;;;14.00;3.97;;;11.70;99.90;;;;;;5039490;28;20717;-35
2024/02/05 01:19:48;;;;;;;14.68;4.00;;;11.70;99.90;;;;;;5041316;28;20021;-33
2024/02/05 01:22:13;;;;;;;12.48;4.13;;;11.70;99.90;;;;;;5039887;28;20031;-34
2024/02/05 01:24:39;;;;;;;15.38;4.40;;;11.70;99.90;;;;;;5040342;28;20376;-37
2024/02/05 01:27:05;;;;;;;12.75;3.95;;;11.70;99.90;;;;;;5040121;28;20045;-34
2024/02/05 01:29:30;;;;;;;15.95;4.10;;;11.80;99.90;;;;;;5039176;28;20021;-37
2024/02/05 01:31:56;;;;;;;15.20;3.50;;;11.70;99.90;;;;;;5039931;28;20037;-37
2024/02/05 01:34:21;;;;;;;14.90;4.07;;;11.70;99.90;;;;;;5039404;28;20643;-35
2024/02/05 01:36:47;;;;;;;12.55;3.55;;;11.70;99.90;;;;;;5040727;28;20828;-37
2024/02/05 01:39:15;;;;;;;11.23;4.07;;;11.70;99.90;;;;;;5039934;28;20027;-37
2024/02/05 01:41:41;;;;;;;13.40;4.57;;;11.60;99.90;;;;;;5039510;28;20555;-34
2024/02/05 01:44:07;;;;;;;18.30;5.15;;;11.60;99.90;;;;;;5038546;28;20131;-35
2024/02/05 01:46:36;;;;;;;13.63;5.03;;;11.60;99.90;;;;;;5039997;28;20044;-36
2024/02/05 01:49:06;;;;;;;23.17;4.78;;;11.50;99.90;;;;;;5039292;28;20145;-35
2024/02/05 01:51:40;;;;;;;21.73;4.97;;;11.50;99.90;;;;;;5039980;28;20052;-35
2024/02/05 01:54:08;;;;;;;14.15;4.68;;;11.50;99.90;;;;;;5039882;28;20029;-37
2024/02/05 01:56:34;;;;;;;14.40;4.53;;;11.50;99.90;;;;;;5038427;28;20110;-35
2024/02/05 01:59:00;;;;;;;15.65;4.57;;;11.40;99.90;;;;;;5040527;28;20025;-37
2024/02/05 02:01:27;;;;;;;15.18;4.20;;;11.40;99.90;;;;;;5039566;28;20037;-36
2024/02/05 02:03:53;;;;;;;16.10;4.22;;;11.40;99.90;;;;;;5039664;28;20029;-36
2024/02/05 02:06:20;;;;;;;15.27;4.60;;;11.40;99.90;;;;;;5039294;28;20048;-35
2024/02/05 02:08:48;;;;;;;15.02;4.18;;;11.40;99.90;;;;;;5040556;28;20033;-34
2024/02/05 02:11:14;;;;;;;17.65;4.47;;;11.40;99.90;;;;;;5037431;28;20028;-33
2024/02/05 02:13:39;;;;;;;16.45;4.93;;;11.30;99.90;;;;;;5039867;28;20056;-36
2024/02/05 02:16:10;;;;;;;14.05;4.60;;;11.30;99.90;;;;;;5040555;28;20194;-32
2024/02/05 02:18:37;;;;;;;15.85;4.53;;;11.30;99.90;;;;;;5039169;28;20063;-36
2024/02/05 02:21:04;;;;;;;13.88;3.90;;;11.30;99.90;;;;;;5039743;28;20029;-34
2024/02/05 02:23:33;;;;;;;13.73;4.13;;;11.20;99.90;;;;;;5037229;28;20115;-37
2024/02/05 02:26:00;;;;;;;15.43;4.45;;;11.20;99.90;;;;;;5039424;28;20079;-36
2024/02/05 02:28:26;;;;;;;15.32;4.93;;;11.10;99.90;;;;;;5038447;28;20112;-35
2024/02/05 02:30:52;;;;;;;12.82;4.28;;;11.10;99.90;;;;;;5038525;28;20038;-35
2024/02/05 02:33:25;;;;;;;21.80;4.72;;;11.10;99.90;;;;;;5038612;28;20477;-36
2024/02/05 02:35:56;;;;;;;;;;;11.00;99.90;;;;;;5039479;28;20896;-35
2024/02/05 02:39:00;;;;;;;15.07;4.40;;;11.10;99.90;;;;;;5037922;28;19908;-36
2024/02/05 02:41:28;;;;;;;16.08;4.65;;;11.00;99.90;;;;;;5037461;28;20024;-38
2024/02/05 02:44:01;;;;;;;8.32;3.38;;;11.10;99.90;;;;;;5038968;28;20058;-34
2024/02/05 02:46:30;;;;;;;16.52;4.00;;;11.00;99.90;;;;;;5038529;28;20041;-37
2024/02/05 02:48:56;;;;;;;16.88;4.25;;;11.00;99.90;;;;;;5039349;28;20033;-33
2024/02/05 02:51:23;;;;;;;17.27;4.75;;;11.00;99.90;;;;;;5038629;28;20063;-34
2024/02/05 02:53:51;;;;;;;17.60;5.07;;;11.00;99.90;;;;;;5038689;28;20523;-33
2024/02/05 02:56:18;;;;;;;14.73;3.85;;;11.10;99.90;;;;;;5038234;28;20052;-35
2024/02/05 02:58:44;;;;;;;20.42;5.55;;;11.00;99.90;;;;;;5038516;28;20421;-35
2024/02/05 03:01:09;;;;;;;16.08;4.90;;;11.10;99.90;;;;;;5039209;28;20027;-33
2024/02/05 03:03:35;;;;;;;22.80;6.30;;;11.00;99.90;;;;;;5038329;28;20032;-35
2024/02/05 03:06:01;;;;;;;17.92;4.80;;;11.00;99.90;;;;;;5037984;28;20120;-35
2024/02/05 03:08:26;;;;;;;16.60;5.20;;;11.00;99.90;;;;;;5037713;28;20158;-36
2024/02/05 03:10:52;;;;;;;13.82;4.90;;;11.00;99.90;;;;;;5037850;28;20396;-37
2024/02/05 03:13:18;;;;;;;18.98;5.20;;;11.00;99.90;;;;;;5038219;28;20055;-34
2024/02/05 03:15:44;;;;;;;18.83;5.13;;;11.00;99.90;;;;;;5037608;28;20638;-37
2024/02/05 03:18:10;;;;;;;19.02;5.55;;;11.00;99.90;;;;;;5038510;28;20112;-35
2024/02/05 03:20:42;;;;;;;13.50;4.40;;;11.10;99.90;;;;;;5038493;28;20057;-37
2024/02/05 03:23:11;;;;;;;16.27;4.80;;;11.10;99.90;;;;;;5038787;28;20561;-35
2024/02/05 03:25:38;;;;;;;22.02;6.18;;;11.00;99.90;;;;;;5038163;28;20140;-37
2024/02/05 03:28:04;;;;;;;15.65;5.22;;;11.00;99.90;;;;;;5038420;28;20021;-35
2024/02/05 03:30:33;;;;;;;16.52;5.40;;;11.10;99.90;;;;;;5038757;28;20043;-37
2024/02/05 03:33:00;;;;;;;16.52;5.53;;;11.10;99.90;;;;;;5038522;28;20113;-37
2024/02/05 03:35:27;;;;;;;17.40;6.00;;;11.10;99.90;;;;;;5038433;28;20112;-36
2024/02/05 03:37:53;;;;;;;18.27;5.70;;;11.10;99.90;;;;;;5039006;28;20040;-37
2024/02/05 03:40:21;;;;;;;13.50;4.47;;;11.10;99.90;;;;;;5037284;28;20028;-37
2024/02/05 03:42:50;;;;;;;19.63;5.13;;;11.10;99.90;;;;;;5038353;28;20025;-34
2024/02/05 03:45:16;;;;;;;22.83;5.85;;;11.10;99.90;;;;;;5037968;28;20061;-37
2024/02/05 03:47:43;;;;;;;21.17;5.78;;;11.10;99.90;;;;;;5038847;28;20517;-36
2024/02/05 03:50:10;;;;;;;13.18;4.45;;;11.10;99.90;;;;;;5041840;28;20110;-35
2024/02/05 03:52:45;;;;;;;13.95;4.82;;;11.10;99.90;;;;;;5041490;28;20431;-36
2024/02/05 03:55:12;;;;;;;15.27;5.70;;;11.10;99.90;;;;;;5041406;28;20029;-35
2024/02/05 03:57:43;;;;;;;13.77;5.00;;;11.10;99.90;;;;;;5041626;28;20032;-36
2024/02/05 04:00:09;;;;;;;14.18;4.45;;;11.20;99.90;;;;;;5041261;28;20043;-32
2024/02/05 04:02:35;;;;;;;17.55;4.93;;;11.20;99.90;;;;;;5041318;28;20044;-33
2024/02/05 04:05:02;;;;;;;16.92;5.50;;;11.20;99.90;;;;;;5042449;28;20404;-34
2024/02/05 04:07:28;;;;;;;18.95;5.75;;;11.20;99.90;;;;;;5040022;28;20431;-35
2024/02/05 04:09:54;;;;;;;15.77;5.10;;;11.20;99.90;;;;;;5040798;28;20031;-33
2024/02/05 04:12:22;;;;;;;14.90;5.20;;;11.10;99.90;;;;;;5042128;28;20039;-36
2024/02/05 04:14:48;;;;;;;19.38;6.47;;;11.10;99.90;;;;;;5041367;28;20067;-35
2024/02/05 04:17:13;;;;;;;18.90;5.40;;;11.20;99.90;;;;;;5042267;28;20113;-36
2024/02/05 04:19:45;;;;;;;18.15;7.28;;;11.10;99.90;;;;;;5041123;28;20036;-37
2024/02/05 04:22:14;;;;;;;13.83;4.87;;;11.10;99.90;;;;;;5041930;28;20021;-36
2024/02/05 04:24:40;;;;;;;11.07;4.55;;;11.10;99.90;;;;;;5041283;28;20374;-36
2024/02/05 04:27:09;;;;;;;12.93;3.95;;;11.10;99.90;;;;;;5041482;28;20044;-35
2024/02/05 04:29:35;;;;;;;16.50;4.38;;;11.20;99.90;;;;;;5042039;28;20036;-37
2024/02/05 04:32:01;;;;;;;17.92;5.35;;;11.10;99.90;;;;;;5039295;28;20033;-34
2024/02/05 04:34:28;;;;;;;14.27;4.72;;;11.10;99.90;;;;;;5041662;28;20079;-37
2024/02/05 04:36:57;;;;;;;17.60;5.15;;;11.10;99.90;;;;;;5040297;28;20467;-37
2024/02/05 04:39:23;;;;;;;19.70;5.05;;;11.10;99.90;;;;;;5040207;28;20131;-34
2024/02/05 04:41:49;;;;;;;17.42;5.28;;;11.10;99.90;;;;;;5040506;28;20029;-36
2024/02/05 04:44:15;;;;;;;19.88;6.43;;;11.10;99.90;;;;;;5040357;28;20055;-38
2024/02/05 04:46:41;;;;;;;11.52;3.85;;;11.00;99.90;;;;;;5040679;28;20029;-35
2024/02/05 04:49:07;;;;;;;12.98;4.30;;;11.10;99.90;;;;;;5041292;28;20024;-41
2024/02/05 04:51:32;;;;;;;14.68;4.50;;;11.10;99.90;;;;;;5040634;28;20025;-37
2024/02/05 04:53:58;;;;;;;12.95;4.20;;;11.00;99.90;;;;;;5041716;28;20021;-37
2024/02/05 04:56:24;;;;;;;19.92;5.15;;;11.10;99.90;;;;;;5040036;28;20025;-36
2024/02/05 04:58:51;;;;;;;13.05;4.40;;;11.00;99.90;;;;;;5040525;28;20021;-37
2024/02/05 05:01:17;;;;;;;21.00;5.65;;;11.00;99.90;;;;;;5041199;28;20149;-36
2024/02/05 05:03:42;;;;;;;10.90;4.60;;;11.00;99.90;;;;;;5040957;28;20357;-37
2024/02/05 05:06:08;;;;;;;10.18;4.18;;;11.00;99.90;;;;;;5039059;28;20465;-35
2024/02/05 05:08:33;;;;;;;9.25;3.60;;;11.00;99.90;;;;;;5040488;28;20735;-35
2024/02/05 05:10:59;;;;;;;13.80;4.18;;;11.00;99.90;;;;;;5041023;28;20032;-36
2024/02/05 05:13:25;;;;;;;15.43;4.10;;;11.00;99.90;;;;;;5039034;28;20037;-35
2024/02/05 05:15:51;;;;;;;14.95;4.15;;;11.00;99.90;;;;;;5039523;28;20511;-35
2024/02/05 05:18:17;;;;;;;19.10;5.38;;;11.00;99.90;;;;;;5040384;28;20033;-37
2024/02/05 05:20:42;;;;;;;17.52;5.43;;;10.90;99.90;;;;;;5040179;28;20074;-36
2024/02/05 05:23:09;;;;;;;13.82;4.55;;;10.90;99.90;;;;;;5040477;28;20033;-35
2024/02/05 05:25:36;;;;;;;10.23;3.85;;;10.90;99.90;;;;;;5041223;28;20781;-36
2024/02/05 05:28:03;;;;;;;13.32;5.40;;;11.00;99.90;;;;;;5039677;28;20154;-36
2024/02/05 05:30:29;;;;;;;10.50;3.65;;;10.90;99.90;;;;;;5037829;28;20021;-35
2024/02/05 05:32:54;;;;;;;14.60;4.38;;;10.90;99.90;;;;;;5041189;28;20821;-37
2024/02/05 05:35:20;;;;;;;17.52;4.25;;;10.90;99.90;;;;;;5040285;28;20120;-36
2024/02/05 05:37:46;;;;;;;10.35;3.75;;;10.90;99.90;;;;;;5040895;28;20013;-36
2024/02/05 05:40:12;;;;;;;13.25;3.72;;;10.90;99.90;;;;;;5039074;28;20042;-32
2024/02/05 05:42:37;;;;;;;11.98;3.97;;;10.90;99.90;;;;;;5039993;28;20108;-35
2024/02/05 05:45:04;;;;;;;14.35;4.43;;;10.90;99.90;;;;;;5040291;28;20376;-36
2024/02/05 05:47:29;;;;;;;17.70;4.95;;;10.90;99.90;;;;;;5039560;28;20060;-37
2024/02/05 05:49:55;;;;;;;15.93;4.95;;;10.90;99.90;;;;;;5040412;28;20494;-35
2024/02/05 05:52:21;;;;;;;13.85;4.15;;;10.90;99.90;;;;;;5040396;28;20043;-36
2024/02/05 05:54:47;;;;;;;13.30;3.85;;;10.90;99.90;;;;;;5040170;28;20100;-35
2024/02/05 05:57:14;;;;;;;9.93;3.95;;;10.90;99.90;;;;;;5040086;28;20033;-39
2024/02/05 05:59:43;;;;;;;12.85;3.70;;;10.90;99.90;;;;;;5039632;28;20384;-36
2024/02/05 06:02:09;;;;;;;9.75;3.45;;;10.90;99.90;;;;;;5037422;28;20559;-35
2024/02/05 06:04:39;;;;;;;13.52;4.35;;;10.90;99.90;;;;;;5039486;28;20025;-35
2024/02/05 06:07:06;;;;;;;15.90;3.75;;;10.90;99.90;;;;;;5039397;28;20126;-37
2024/02/05 06:09:32;;;;;;;12.85;4.00;;;10.90;99.90;;;;;;5038732;28;20028;-37
2024/02/05 06:11:58;;;;;;;11.85;4.13;;;10.90;99.90;;;;;;5039117;28;20522;-36
2024/02/05 06:14:23;;;;;;;16.52;3.85;;;10.90;99.90;;;;;;5040102;28;20060;-34
2024/02/05 06:16:52;;;;;;;9.68;3.35;;;10.90;99.90;;;;;;5038854;28;20021;-35
2024/02/05 06:19:18;;;;;;;15.00;5.28;;;10.90;99.90;;;;;;5038838;28;20013;-37
2024/02/05 06:21:43;;;;;;;12.23;4.20;;;10.90;99.90;;;;;;5039375;28;20031;-34
2024/02/05 06:24:09;;;;;;;14.57;3.88;;;10.90;99.90;;;;;;5039291;28;20025;-35
2024/02/05 06:26:35;;;;;;;13.27;4.03;;;10.90;99.90;;;;;;5039346;28;20120;-37
2024/02/05 06:29:00;;;;;;;13.45;4.40;;;10.80;99.90;;;;;;5035504;28;20026;-35
2024/02/05 06:31:26;;;;;;;13.38;3.88;;;10.80;99.90;;;;;;5029609;28;20438;-35
2024/02/05 06:33:51;;;;;;;10.15;4.03;;;10.80;99.90;;;;;;5022331;28;20048;-35
2024/02/05 06:36:17;;;;;;;14.50;4.38;;;10.80;99.90;;;;;;5038648;28;20070;-36
2024/02/05 06:38:43;;;;;;;15.82;3.67;;;10.80;99.90;;;;;;5039334;28;20376;-36
2024/02/05 06:41:08;;;;;;;13.43;3.90;;;10.80;99.90;;;;;;5038963;28;20036;-38
2024/02/05 06:43:35;;;;;;;13.15;3.80;;;10.90;99.90;;;;;;5038646;28;20033;-38
2024/02/05 06:46:02;;;;;;;11.27;4.03;;;10.80;99.90;;;;;;5035572;28;20029;-38
2024/02/05 06:48:31;;;;;;;13.65;3.60;;;10.80;99.90;;;;;;5038035;28;20052;-36
2024/02/05 06:50:56;;;;;;;10.75;3.50;;;10.80;99.90;;;;;;5037651;28;20836;-37
2024/02/05 06:53:22;;;;;;;12.20;3.50;;;10.80;99.90;;;;;;5038670;28;20118;-35
2024/02/05 06:55:47;;;;;;;15.02;4.00;;;10.80;99.90;;;;;;5038728;28;20025;-34
2024/02/05 06:58:13;;;;;;;12.55;4.32;;;10.80;99.90;;;;;;5038293;28;20062;-32
2024/02/05 07:00:39;;;;;;;13.95;4.35;;;10.80;99.90;;;;;;5037677;28;20068;-35
2024/02/05 07:03:05;;;;;;;11.68;4.50;;;10.80;99.90;;;;;;5039050;28;20037;-36
2024/02/05 07:05:31;;;;;;;11.00;3.25;;;10.80;99.90;;;;;;5037654;28;20048;-36
2024/02/05 07:07:57;;;;;;;14.85;4.00;;;10.70;99.90;;;;;;5037898;28;20049;-38
2024/02/05 07:10:22;;;;;;;10.45;4.60;;;10.80;99.90;;;;;;5038279;28;20029;-32
2024/02/05 07:12:48;;;;;;;13.25;3.75;;;10.80;99.90;;;;;;5037806;28;20500;-37
2024/02/05 07:15:14;;;;;;;12.80;3.80;;;10.70;99.90;;;;;;5039312;28;20146;-38
2024/02/05 07:17:43;;;;;;;18.05;4.53;;;10.80;99.90;;;;;;5038708;28;20029;-37
2024/02/05 07:20:09;;;;;;;19.50;4.93;;;10.80;99.90;;;;;;5038988;28;20037;-37
2024/02/05 07:22:34;;;;;;;15.75;4.30;;;10.70;99.90;;;;;;5038997;28;20393;-38
2024/02/05 07:25:03;;;;;;;15.93;4.32;;;10.70;99.90;;;;;;5040302;28;20548;-36
2024/02/05 07:27:29;;;;;;;13.18;3.45;;;10.70;99.90;;;;;;5041317;28;20036;-36
2024/02/05 07:29:55;;;;;;;12.27;3.75;;;10.80;99.90;;;;;;5041696;28;20031;-36
2024/02/05 07:32:21;;;;;;;13.30;4.47;;;10.70;99.90;;;;;;5041126;28;20025;-37
2024/02/05 07:34:47;;;;;;;14.18;4.63;;;10.70;99.90;;;;;;5039988;28;20104;-39
2024/02/05 07:37:13;;;;;;;13.23;3.60;;;10.70;99.90;;;;;;5042175;28;20028;-37
2024/02/05 07:39:39;;;;;;;13.00;4.70;;;10.70;99.90;;;;;;5041805;28;20826;-38
2024/02/05 07:42:05;;;;;;;16.10;4.57;;;10.70;99.90;;;;;;5041281;28;20029;-36
2024/02/05 07:44:31;;;;;;;16.20;4.75;;;10.70;99.90;;;;;;5042267;28;20071;-35
2024/02/05 07:46:57;;;;;;;17.77;3.80;;;10.70;99.90;;;;;;5041567;28;20144;-37
2024/02/05 07:49:22;;;;;;;11.40;3.88;;;10.70;99.90;;;;;;5039116;28;20025;-36
2024/02/05 07:51:49;;;;;;;14.20;3.88;;;10.70;99.90;;;;;;5041925;28;20166;-37
2024/02/05 07:54:18;;;;;;;10.55;3.75;;;10.70;99.90;;;;;;5041459;28;20021;-39
2024/02/05 07:56:43;;;;;;;13.35;3.95;;;10.70;99.90;;;;;;5042586;28;20122;-37
2024/02/05 07:59:10;;;;;;;10.43;4.43;;;10.70;99.90;;;;;;5042403;28;20526;-35
2024/02/05 08:01:37;;;;;;;11.10;3.97;;;10.70;99.90;;;;;;5041914;28;20579;-38
2024/02/05 08:04:03;;;;;;;14.82;4.68;;;10.70;99.90;;;;;;5042242;28;20467;-38
2024/02/05 08:06:29;;;;;;;15.63;4.80;;;10.70;99.90;;;;;;5041953;28;20048;-39
2024/02/05 08:08:59;;;;;;;19.65;4.32;;;10.70;99.90;;;;;;5041234;28;20033;-36
2024/02/05 08:11:25;;;;;;;13.27;4.72;;;10.70;99.90;;;;;;5041913;28;20623;-38
2024/02/05 08:14:00;;;;;;;17.23;4.28;;;10.70;99.90;;;;;;5041787;28;20107;-34
2024/02/05 08:16:25;;;;;;;18.45;5.30;;;10.70;99.90;;;;;;5041175;28;20025;-35
2024/02/05 08:18:51;;;;;;;17.25;5.13;;;10.70;99.90;;;;;;5041686;28;20028;-37
2024/02/05 08:21:16;;;;;;;15.68;4.60;;;10.70;99.90;;;;;;5042266;28;20028;-39
2024/02/05 08:23:42;;;;;;;14.60;4.57;;;10.70;99.90;;;;;;5041605;28;20419;-37
2024/02/05 08:26:08;;;;;;;13.80;4.68;;;10.70;99.90;;;;;;5041674;28;20033;-37
2024/02/05 08:28:34;;;;;;;13.23;4.03;;;10.70;99.90;;;;;;5042394;28;20375;-35
2024/02/05 08:31:00;;;;;;;14.48;4.45;;;10.70;99.90;;;;;;5041186;28;20021;-36
2024/02/05 08:33:25;;;;;;;15.32;4.38;;;10.70;99.90;;;;;;5041618;28;20032;-35
2024/02/05 08:35:52;;;;;;;20.05;5.55;;;10.70;99.90;;;;;;5041244;28;20017;-34
2024/02/05 08:38:17;;;;;;;18.80;4.93;;;10.70;99.90;;;;;;5040604;28;20029;-33
2024/02/05 08:40:46;;;;;;;18.95;4.28;;;10.70;99.90;;;;;;5041767;28;20029;-34
2024/02/05 08:43:12;;;;;;;15.05;4.43;;;10.70;99.90;;;;;;5040837;28;20488;-36
2024/02/05 08:45:38;;;;;;;15.10;5.22;;;10.80;99.90;;;;;;5041161;28;20083;-36
2024/02/05 08:48:04;;;;;;;17.77;4.53;;;10.80;99.90;;;;;;5041396;28;20028;-34
2024/02/05 08:50:36;;;;;;;11.18;3.65;;;10.80;99.90;;;;;;5040346;28;20724;-35
2024/02/05 08:53:05;;;;;;;17.23;5.47;;;10.80;99.90;;;;;;5041760;28;20051;-36
2024/02/05 08:55:31;;;;;;;18.23;4.80;;;10.80;99.90;;;;;;5041459;28;20052;-33
2024/02/05 08:57:57;;;;;;;14.77;5.07;;;10.80;99.90;;;;;;5040962;28;20140;-35
2024/02/05 09:00:22;;;;;;;16.40;4.68;;;10.80;99.90;;;;;;5041055;28;20040;-35
2024/02/05 09:02:53;;;;;;;22.98;5.05;;;10.80;99.90;;;;;;5041325;28;20036;-37
2024/02/05 09:05:19;;;;;;;12.50;3.83;;;10.80;99.90;;;;;;5040269;28;20044;-37
2024/02/05 09:07:45;;;;;;;18.90;4.63;;;10.80;99.90;;;;;;5041875;28;20033;-37
2024/02/05 09:10:11;;;;;;;20.00;5.45;;;10.80;99.90;;;;;;5040599;28;20060;-33
2024/02/05 09:12:36;;;;;;;14.18;4.93;;;10.80;99.90;;;;;;5040787;28;20087;-36
2024/02/05 09:15:03;;;;;;;13.18;5.80;;;10.80;99.90;;;;;;5041048;28;20033;-38
2024/02/05 09:17:29;;;;;;;22.15;7.20;;;10.80;99.90;;;;;;5041174;28;20029;-37
2024/02/05 09:19:55;;;;;;;16.60;6.57;;;10.80;99.90;;;;;;5040481;28;21001;-37
2024/02/05 09:22:21;;;;;;;14.35;6.80;;;10.80;99.90;;;;;;5041187;28;20075;-36
2024/02/05 09:24:46;;;;;;;14.73;6.25;;;10.80;99.90;;;;;;5041455;28;20567;-32
2024/02/05 09:27:12;;;;;;;17.67;8.23;;;10.80;99.90;;;;;;5039250;28;20037;-37
2024/02/05 09:29:38;;;;;;;20.20;8.10;;;10.80;99.90;;;;;;5040963;28;20025;-34
2024/02/05 09:32:06;;;;;;;19.98;7.20;;;10.90;99.90;;;;;;5041484;28;20128;-34
2024/02/05 09:34:33;;;;;;;13.57;7.43;;;10.80;99.90;;;;;;5040488;28;20078;-33
2024/02/05 09:36:59;;;;;;;18.08;6.85;;;10.80;99.90;;;;;;5038635;28;20024;-35
2024/02/05 09:39:25;;;;;;;18.00;7.55;;;10.90;99.90;;;;;;5040183;28;20029;-35
2024/02/05 09:41:54;;;;;;;20.08;7.35;;;10.80;99.90;;;;;;5038966;28;20257;-32
2024/02/05 09:44:25;;;;;;;20.70;7.60;;;10.90;99.90;;;;;;5040015;28;20057;-33
2024/02/05 09:46:58;;;;;;;19.60;7.75;;;10.90;99.90;;;;;;5038552;28;20037;-35
2024/02/05 09:49:25;;;;;;;23.25;8.55;;;10.80;99.90;;;;;;5039677;28;20154;-37
2024/02/05 09:51:51;;;;;;;17.50;7.70;;;10.80;99.90;;;;;;5040170;28;20040;-34
2024/02/05 09:54:20;;;;;;;19.58;7.20;;;10.80;99.90;;;;;;5039140;28;20021;-36
2024/02/05 09:56:46;;;;;;;15.82;7.10;;;10.80;99.90;;;;;;5039131;28;20032;-35
2024/02/05 09:59:12;;;;;;;20.58;7.63;;;10.80;99.90;;;;;;5039078;28;20055;-35
2024/02/05 10:01:38;;;;;;;15.05;6.40;;;10.70;99.90;;;;;;5038588;28;20021;-37
2024/02/05 10:04:07;;;;;;;19.20;6.20;;;10.80;99.90;;;;;;5039660;28;20029;-34
2024/02/05 10:06:37;;;;;;;19.33;6.05;;;10.80;99.90;;;;;;5039458;28;20551;-36
2024/02/05 10:09:08;;;;;;;16.38;5.70;;;10.80;99.90;;;;;;5039148;28;20263;-32
2024/02/05 10:11:37;;;;;;;17.25;6.00;;;10.80;99.90;;;;;;5039942;28;20040;-34
2024/02/05 10:14:04;;;;;;;16.73;5.85;;;10.80;99.90;;;;;;5038658;28;20555;-35
2024/02/05 10:16:30;;;;;;;14.38;5.32;;;10.80;99.90;;;;;;5039111;28;20578;-36
2024/02/05 10:18:55;;;;;;;18.38;5.97;;;10.90;99.90;;;;;;5039598;28;20025;-33
2024/02/05 10:21:21;;;;;;;17.05;5.20;;;10.90;99.90;;;;;;5039827;28;20086;-37
2024/02/05 10:23:56;;;;;;;17.20;4.82;;;10.90;99.90;;;;;;5038933;28;20025;-35
2024/02/05 10:26:24;;;;;;;15.85;5.03;;;10.90;99.90;;;;;;5039168;28;20736;-39
2024/02/05 10:28:51;;;;;;;19.13;5.40;;;10.90;99.90;;;;;;5038852;28;20032;-37
2024/02/05 10:31:17;;;;;;;10.63;3.90;;;10.90;99.90;;;;;;5039077;28;20063;-37
2024/02/05 10:33:45;;;;;;;14.02;4.55;;;11.00;99.90;;;;;;5039059;28;20025;-36
2024/02/05 10:36:11;;;;;;;12.32;3.90;;;11.00;99.90;;;;;;5018400;28;20477;-38
2024/02/05 10:38:38;;;;;;;15.35;4.65;;;11.00;99.90;;;;;;5033292;28;20029;-37
2024/02/05 10:41:10;;;;;;;21.88;5.10;;;11.00;99.90;;;;;;5038621;28;20036;-38
2024/02/05 10:43:36;;;;;;;;;;;11.00;99.90;;;;;;5038433;28;20426;-38
2024/02/05 10:46:02;;;;;;;16.35;5.10;;;11.10;99.90;;;;;;5038022;28;20352;-37
2024/02/05 10:48:28;;;;;;;13.85;4.28;;;11.10;99.90;;;;;;5038196;28;20048;-37
2024/02/05 10:50:54;;;;;;;17.25;4.68;;;11.10;99.90;;;;;;5038247;28;20166;-38
2024/02/05 10:53:21;;;;;;;17.15;4.78;;;11.10;99.90;;;;;;5038512;28;20025;-37
2024/02/05 10:55:48;;;;;;;19.10;5.35;;;11.10;99.90;;;;;;5039645;28;20055;-36
2024/02/05 10:58:15;;;;;;;11.43;4.55;;;11.10;99.90;;;;;;5037352;28;20048;-37
2024/02/05 11:00:41;;;;;;;17.70;4.30;;;11.20;99.90;;;;;;5027961;28;20091;-37
2024/02/05 11:03:12;;;;;;;17.52;4.32;;;11.20;99.90;;;;;;5038767;28;20025;-36
2024/02/05 11:05:38;;;;;;;17.30;4.50;;;11.20;99.90;;;;;;5038165;28;20071;-34
2024/02/05 11:08:09;;;;;;;13.05;4.60;;;11.20;99.90;;;;;;5038369;28;20067;-34
2024/02/05 11:10:42;;;;;;;12.55;3.75;;;11.20;99.90;;;;;;5035706;28;20017;-36
2024/02/05 11:13:13;;;;;;;14.32;4.22;;;11.20;99.90;;;;;;5038246;28;20111;-37
2024/02/05 11:15:40;;;;;;;12.30;3.75;;;11.20;99.90;;;;;;5038199;28;20103;-37
2024/02/05 11:18:21;;;;;;;15.70;4.60;;;11.30;99.90;;;;;;5038027;28;20029;-38
2024/02/05 11:20:49;;;;;;;16.60;4.28;;;11.30;99.90;;;;;;5038569;28;20028;-36
2024/02/05 11:23:16;;;;;;;12.10;3.85;;;11.40;99.90;;;;;;5039102;28;20021;-36
2024/02/05 11:25:41;;;;;;;11.93;4.22;;;11.40;99.90;;;;;;5038199;28;20578;-37
2024/02/05 11:28:12;;;;;;;15.65;4.65;;;11.40;99.90;;;;;;5038809;28;20029;-33
2024/02/05 11:30:44;;;;;;;14.93;4.32;;;11.40;99.90;;;;;;5038951;28;20083;-33
2024/02/05 11:33:11;;;;;;;21.50;5.50;;;11.50;99.90;;;;;;5039203;28;20114;-35
2024/02/05 11:35:49;;;;;;;17.35;4.78;;;11.50;99.90;;;;;;5039027;28;20568;-34
2024/02/05 11:38:18;;;;;;;15.65;5.00;;;11.50;99.90;;;;;;5024485;28;20028;-33
2024/02/05 11:40:44;;;;;;;14.35;4.55;;;11.50;99.90;;;;;;5038573;28;20483;-38
2024/02/05 11:43:10;;;;;;;12.32;4.60;;;11.50;99.90;;;;;;5038832;28;20028;-43
2024/02/05 11:45:36;;;;;;;17.33;4.65;;;11.50;99.90;;;;;;5038608;28;20494;-37
2024/02/05 11:48:03;;;;;;;10.98;4.55;;;11.60;99.90;;;;;;5038208;28;20470;-38
2024/02/05 11:50:31;;;;;;;12.70;4.45;;;11.60;99.90;;;;;;5038746;28;20025;-35
2024/02/05 11:52:57;;;;;;;22.15;5.32;;;11.60;99.90;;;;;;5023739;28;20033;-37
2024/02/05 11:55:26;;;;;;;16.02;5.82;;;11.70;99.90;;;;;;5025086;28;20067;-37
2024/02/05 11:57:52;;;;;;;16.45;4.32;;;11.70;99.90;;;;;;5038879;28;20029;-34
2024/02/05 12:00:19;;;;;;;15.52;5.10;;;11.70;99.90;;;;;;5036724;28;20036;-38
2024/02/05 12:02:45;;;;;;;13.48;4.60;;;11.70;99.90;;;;;;5027301;28;20431;-38
2024/02/05 12:05:12;;;;;;;14.35;5.65;;;11.80;99.90;;;;;;5037343;28;20112;-35
2024/02/05 12:07:38;;;;;;;14.48;5.22;;;11.80;99.90;;;;;;5036747;28;20646;-37
2024/02/05 12:10:05;;;;;;;13.23;4.80;;;11.80;99.90;;;;;;5040597;28;20037;-37
2024/02/05 12:12:31;;;;;;;15.73;5.15;;;11.80;99.90;;;;;;5041789;28;20039;-37
2024/02/05 12:14:57;;;;;;;15.55;5.50;;;11.80;99.90;;;;;;5042229;28;20055;-35
2024/02/05 12:17:23;;;;;;;20.70;5.80;;;11.80;99.90;;;;;;5041653;28;20021;-35
2024/02/05 12:19:57;;;;;;;11.98;4.72;;;11.90;99.90;;;;;;5041570;28;20036;-36
2024/02/05 12:22:23;;;;;;;12.80;4.82;;;11.90;99.90;;;;;;5040551;28;20021;-31
2024/02/05 12:24:49;;;;;;;12.68;4.68;;;12.00;99.90;;;;;;5042114;28;20052;-37
2024/02/05 12:27:15;;;;;;;18.77;5.57;;;12.00;99.90;;;;;;5041925;28;20044;-37
2024/02/05 12:29:40;;;;;;;14.63;4.95;;;12.00;99.90;;;;;;5041280;28;20079;-33
2024/02/05 12:32:07;;;;;;;9.80;4.20;;;12.00;99.90;;;;;;5040942;28;20082;-36
2024/02/05 12:34:34;;;;;;;12.80;4.85;;;12.00;99.90;;;;;;5040662;28;20450;-32
2024/02/05 12:36:59;;;;;;;12.18;4.53;;;12.00;99.90;;;;;;5039540;28;20025;-35